sensor_id;sensor_type;location;lat;lon;timestamp;pressure;altitude;pressure_sealevel;temperature;humidity
11343;BME280;5726;42.160;24.746;2023-07-22T00:01:59;99339.63;;;28.16;70.94
11343;BME280;5726;42.160;24.746;2023-07-22T00:04:25;99341.56;;;28.22;70.34
11343;BME280;5726;42.160;24.746;2023-07-22T00:06:51;99338.19;;;28.41;69.78
11343;BME280;5726;42.160;24.746;2023-07-22T00:09:17;99328.47;;;28.30;70.02
11343;BME280;5726;42.160;24.746;2023-07-22T00:11:42;99322.97;;;28.30;70.06
11343;BME280;5726;42.160;24.746;2023-07-22T00:14:08;99320.13;;;28.37;69.67
11343;BME280;5726;42.160;24.746;2023-07-22T00:16:34;99324.59;;;28.24;70.46
11343;BME280;5726;42.160;24.746;2023-07-22T00:19:00;99329.31;;;28.23;70.71
11343;BME280;5726;42.160;24.746;2023-07-22T00:21:25;99339.38;;;28.43;69.81
11343;BME280;5726;42.160;24.746;2023-07-22T00:23:51;99341.88;;;28.31;70.18
11343;BME280;5726;42.160;24.746;2023-07-22T00:26:16;99344.16;;;28.36;70.28
11343;BME280;5726;42.160;24.746;2023-07-22T00:28:42;99331.19;;;28.33;70.45
11343;BME280;5726;42.160;24.746;2023-07-22T00:31:08;99340.19;;;28.41;70.01
11343;BME280;5726;42.160;24.746;2023-07-22T00:33:34;99345.41;;;28.32;70.63
11343;BME280;5726;42.160;24.746;2023-07-22T00:35:59;99345.84;;;28.27;71.02
11343;BME280;5726;42.160;24.746;2023-07-22T00:38:25;99343.81;;;28.31;71.09
11343;BME280;5726;42.160;24.746;2023-07-22T00:40:50;99353.25;;;28.33;70.56
11343;BME280;5726;42.160;24.746;2023-07-22T00:43:15;99343.47;;;28.29;70.70
11343;BME280;5726;42.160;24.746;2023-07-22T00:45:41;99341.47;;;28.29;70.81
11343;BME280;5726;42.160;24.746;2023-07-22T00:48:08;99348.09;;;28.39;70.59
11343;BME280;5726;42.160;24.746;2023-07-22T00:50:33;99349.03;;;28.22;71.46
11343;BME280;5726;42.160;24.746;2023-07-22T00:53:00;99353.84;;;28.14;72.10
11343;BME280;5726;42.160;24.746;2023-07-22T00:55:25;99351.91;;;28.08;72.26
11343;BME280;5726;42.160;24.746;2023-07-22T00:57:52;99355.53;;;27.98;72.90
11343;BME280;5726;42.160;24.746;2023-07-22T01:00:17;99352.28;;;28.13;72.31
11343;BME280;5726;42.160;24.746;2023-07-22T01:02:43;99358.31;;;28.42;71.18
11343;BME280;5726;42.160;24.746;2023-07-22T01:05:10;99359.34;;;28.14;72.31
11343;BME280;5726;42.160;24.746;2023-07-22T01:07:36;99355.59;;;27.88;73.49
11343;BME280;5726;42.160;24.746;2023-07-22T01:10:04;99369.66;;;28.03;73.14
11343;BME280;5726;42.160;24.746;2023-07-22T01:12:31;99373.59;;;28.06;73.08
11343;BME280;5726;42.160;24.746;2023-07-22T01:14:56;99367.28;;;28.05;72.98
11343;BME280;5726;42.160;24.746;2023-07-22T01:17:22;99368.22;;;28.32;71.60
11343;BME280;5726;42.160;24.746;2023-07-22T01:19:47;99361.50;;;28.37;71.25
11343;BME280;5726;42.160;24.746;2023-07-22T01:22:13;99365.16;;;28.27;72.25
11343;BME280;5726;42.160;24.746;2023-07-22T01:24:39;99374.41;;;28.03;73.35
11343;BME280;5726;42.160;24.746;2023-07-22T01:27:06;99369.56;;;28.21;72.47
11343;BME280;5726;42.160;24.746;2023-07-22T01:29:33;99384.38;;;28.34;71.72
11343;BME280;5726;42.160;24.746;2023-07-22T01:31:59;99385.09;;;28.44;71.64
11343;BME280;5726;42.160;24.746;2023-07-22T01:34:25;99372.09;;;28.42;71.33
11343;BME280;5726;42.160;24.746;2023-07-22T01:36:50;99378.50;;;28.72;70.23
11343;BME280;5726;42.160;24.746;2023-07-22T01:39:17;99370.38;;;28.54;70.51
11343;BME280;5726;42.160;24.746;2023-07-22T01:41:44;99373.28;;;28.41;71.33
11343;BME280;5726;42.160;24.746;2023-07-22T01:44:09;99381.03;;;28.52;71.16
11343;BME280;5726;42.160;24.746;2023-07-22T01:46:36;99384.16;;;28.54;70.77
11343;BME280;5726;42.160;24.746;2023-07-22T01:49:05;99397.44;;;28.66;69.97
11343;BME280;5726;42.160;24.746;2023-07-22T01:51:31;99391.72;;;28.87;69.32
11343;BME280;5726;42.160;24.746;2023-07-22T01:53:57;99381.06;;;28.89;69.11
11343;BME280;5726;42.160;24.746;2023-07-22T01:56:23;99381.91;;;28.86;69.44
11343;BME280;5726;42.160;24.746;2023-07-22T01:58:49;99380.59;;;28.94;68.88
11343;BME280;5726;42.160;24.746;2023-07-22T02:01:14;99381.91;;;28.86;69.19
11343;BME280;5726;42.160;24.746;2023-07-22T02:03:41;99380.47;;;29.04;68.25
11343;BME280;5726;42.160;24.746;2023-07-22T02:06:07;99384.44;;;28.70;70.07
11343;BME280;5726;42.160;24.746;2023-07-22T02:08:32;99386.38;;;28.33;71.70
11343;BME280;5726;42.160;24.746;2023-07-22T02:11:01;99385.81;;;28.48;71.41
11343;BME280;5726;42.160;24.746;2023-07-22T02:13:29;99383.16;;;28.38;71.69
11343;BME280;5726;42.160;24.746;2023-07-22T02:15:54;99380.00;;;28.40;71.90
11343;BME280;5726;42.160;24.746;2023-07-22T02:18:20;99391.31;;;28.48;71.72
11343;BME280;5726;42.160;24.746;2023-07-22T02:20:45;99388.81;;;28.64;70.97
11343;BME280;5726;42.160;24.746;2023-07-22T02:23:10;99386.63;;;28.45;71.29
11343;BME280;5726;42.160;24.746;2023-07-22T02:25:36;99396.94;;;28.42;71.58
11343;BME280;5726;42.160;24.746;2023-07-22T02:28:02;99390.91;;;28.53;71.31
11343;BME280;5726;42.160;24.746;2023-07-22T02:30:27;99406.63;;;28.56;71.26
11343;BME280;5726;42.160;24.746;2023-07-22T02:32:52;99403.84;;;28.96;69.40
11343;BME280;5726;42.160;24.746;2023-07-22T02:35:18;99408.88;;;29.05;68.82
11343;BME280;5726;42.160;24.746;2023-07-22T02:37:44;99398.16;;;28.77;69.96
11343;BME280;5726;42.160;24.746;2023-07-22T02:40:09;99386.91;;;28.58;70.66
11343;BME280;5726;42.160;24.746;2023-07-22T02:42:38;99387.25;;;28.67;70.69
11343;BME280;5726;42.160;24.746;2023-07-22T02:45:04;99380.72;;;28.84;69.72
11343;BME280;5726;42.160;24.746;2023-07-22T02:47:32;99382.81;;;29.06;68.44
11343;BME280;5726;42.160;24.746;2023-07-22T02:49:58;99375.56;;;28.89;69.22
11343;BME280;5726;42.160;24.746;2023-07-22T02:52:23;99385.38;;;28.90;69.23
11343;BME280;5726;42.160;24.746;2023-07-22T02:55:09;99391.41;;;29.15;68.50
11343;BME280;5726;42.160;24.746;2023-07-22T02:57:39;99382.59;;;29.27;67.59
11343;BME280;5726;42.160;24.746;2023-07-22T03:00:05;99383.25;;;29.04;68.23
11343;BME280;5726;42.160;24.746;2023-07-22T03:02:38;99387.47;;;29.12;68.19
11343;BME280;5726;42.160;24.746;2023-07-22T03:05:04;99403.28;;;29.12;67.57
11343;BME280;5726;42.160;24.746;2023-07-22T03:07:40;99393.28;;;29.21;67.58
11343;BME280;5726;42.160;24.746;2023-07-22T03:10:06;99388.97;;;29.20;67.27
11343;BME280;5726;42.160;24.746;2023-07-22T03:12:32;99381.91;;;29.16;67.63
11343;BME280;5726;42.160;24.746;2023-07-22T03:14:58;99368.09;;;29.16;67.23
11343;BME280;5726;42.160;24.746;2023-07-22T03:17:24;99378.78;;;29.14;67.46
11343;BME280;5726;42.160;24.746;2023-07-22T03:19:49;99376.16;;;29.33;66.37
11343;BME280;5726;42.160;24.746;2023-07-22T03:22:16;99380.56;;;28.97;68.46
11343;BME280;5726;42.160;24.746;2023-07-22T03:24:43;99386.31;;;28.80;69.32
11343;BME280;5726;42.160;24.746;2023-07-22T03:27:08;99380.97;;;28.96;68.75
11343;BME280;5726;42.160;24.746;2023-07-22T03:29:34;99378.31;;;29.19;67.64
11343;BME280;5726;42.160;24.746;2023-07-22T03:31:59;99379.34;;;29.32;66.80
11343;BME280;5726;42.160;24.746;2023-07-22T03:34:29;99396.16;;;29.70;65.29
11343;BME280;5726;42.160;24.746;2023-07-22T03:36:54;99399.53;;;29.85;65.06
11343;BME280;5726;42.160;24.746;2023-07-22T03:39:20;99400.81;;;30.03;63.69
11343;BME280;5726;42.160;24.746;2023-07-22T03:41:46;99399.88;;;30.13;63.89
11343;BME280;5726;42.160;24.746;2023-07-22T03:44:11;99404.28;;;30.33;62.62
11343;BME280;5726;42.160;24.746;2023-07-22T03:46:37;99395.59;;;30.54;61.92
11343;BME280;5726;42.160;24.746;2023-07-22T03:49:03;99389.97;;;30.80;61.11
11343;BME280;5726;42.160;24.746;2023-07-22T03:51:28;99401.63;;;31.10;59.75
11343;BME280;5726;42.160;24.746;2023-07-22T03:53:54;99394.88;;;31.31;59.33
11343;BME280;5726;42.160;24.746;2023-07-22T03:56:20;99403.34;;;31.24;59.11
11343;BME280;5726;42.160;24.746;2023-07-22T03:58:45;99402.56;;;31.04;59.92
11343;BME280;5726;42.160;24.746;2023-07-22T04:01:11;99398.78;;;31.33;58.75
11343;BME280;5726;42.160;24.746;2023-07-22T04:03:37;99405.78;;;31.76;57.23
11343;BME280;5726;42.160;24.746;2023-07-22T04:06:03;99409.78;;;31.91;56.83
11343;BME280;5726;42.160;24.746;2023-07-22T04:08:28;99404.25;;;32.23;55.46
11343;BME280;5726;42.160;24.746;2023-07-22T04:10:57;99412.75;;;32.32;55.17
11343;BME280;5726;42.160;24.746;2023-07-22T04:13:24;99409.09;;;32.35;54.11
11343;BME280;5726;42.160;24.746;2023-07-22T04:15:52;99403.63;;;32.63;53.81
11343;BME280;5726;42.160;24.746;2023-07-22T04:18:18;99411.09;;;32.66;53.50
11343;BME280;5726;42.160;24.746;2023-07-22T04:20:45;99414.94;;;32.84;53.09
11343;BME280;5726;42.160;24.746;2023-07-22T04:23:11;99413.41;;;33.11;52.68
11343;BME280;5726;42.160;24.746;2023-07-22T04:25:44;99413.38;;;33.39;52.07
11343;BME280;5726;42.160;24.746;2023-07-22T04:28:10;99411.78;;;33.38;51.22
11343;BME280;5726;42.160;24.746;2023-07-22T04:30:36;99414.84;;;33.44;50.86
11343;BME280;5726;42.160;24.746;2023-07-22T04:33:02;99409.47;;;33.37;51.47
11343;BME280;5726;42.160;24.746;2023-07-22T04:35:32;99418.84;;;33.15;51.76
11343;BME280;5726;42.160;24.746;2023-07-22T04:37:58;99418.16;;;33.11;52.11
11343;BME280;5726;42.160;24.746;2023-07-22T04:40:24;99420.81;;;33.02;51.94
11343;BME280;5726;42.160;24.746;2023-07-22T04:42:50;99410.94;;;32.85;52.73
11343;BME280;5726;42.160;24.746;2023-07-22T04:45:16;99421.34;;;32.97;52.26
11343;BME280;5726;42.160;24.746;2023-07-22T04:47:43;99415.59;;;33.04;52.52
11343;BME280;5726;42.160;24.746;2023-07-22T04:50:12;99424.13;;;32.97;52.84
11343;BME280;5726;42.160;24.746;2023-07-22T04:52:38;99415.63;;;32.88;52.79
11343;BME280;5726;42.160;24.746;2023-07-22T04:55:04;99415.38;;;32.83;53.30
11343;BME280;5726;42.160;24.746;2023-07-22T04:57:35;99418.97;;;32.67;53.57
11343;BME280;5726;42.160;24.746;2023-07-22T05:00:01;99418.97;;;32.67;53.30
11343;BME280;5726;42.160;24.746;2023-07-22T05:02:30;99421.50;;;33.06;53.50
11343;BME280;5726;42.160;24.746;2023-07-22T05:04:58;99426.56;;;33.64;51.04
11343;BME280;5726;42.160;24.746;2023-07-22T05:07:23;99415.00;;;33.90;50.21
11343;BME280;5726;42.160;24.746;2023-07-22T05:09:49;99422.66;;;34.48;48.24
11343;BME280;5726;42.160;24.746;2023-07-22T05:12:16;99424.84;;;34.53;47.99
11343;BME280;5726;42.160;24.746;2023-07-22T05:14:41;99408.53;;;34.76;47.44
11343;BME280;5726;42.160;24.746;2023-07-22T05:17:07;99410.19;;;35.07;46.13
11343;BME280;5726;42.160;24.746;2023-07-22T05:19:32;99408.25;;;35.38;45.82
11343;BME280;5726;42.160;24.746;2023-07-22T05:21:58;99421.88;;;35.66;44.98
11343;BME280;5726;42.160;24.746;2023-07-22T05:24:23;99431.66;;;36.01;43.89
11343;BME280;5726;42.160;24.746;2023-07-22T05:26:48;99422.56;;;36.09;43.47
11343;BME280;5726;42.160;24.746;2023-07-22T05:29:14;99428.81;;;36.22;42.81
11343;BME280;5726;42.160;24.746;2023-07-22T05:31:40;99434.16;;;36.47;42.45
11343;BME280;5726;42.160;24.746;2023-07-22T05:34:05;99430.88;;;36.48;42.78
11343;BME280;5726;42.160;24.746;2023-07-22T05:36:31;99427.22;;;36.78;42.13
11343;BME280;5726;42.160;24.746;2023-07-22T05:38:57;99428.16;;;37.11;41.15
11343;BME280;5726;42.160;24.746;2023-07-22T05:41:22;99421.78;;;37.37;40.88
11343;BME280;5726;42.160;24.746;2023-07-22T05:43:48;99434.25;;;37.86;39.98
11343;BME280;5726;42.160;24.746;2023-07-22T05:46:13;99422.44;;;37.82;39.55
11343;BME280;5726;42.160;24.746;2023-07-22T05:48:39;99428.41;;;37.75;39.68
11343;BME280;5726;42.160;24.746;2023-07-22T05:51:04;99430.47;;;37.98;39.41
11343;BME280;5726;42.160;24.746;2023-07-22T05:53:32;99427.81;;;38.35;38.18
11343;BME280;5726;42.160;24.746;2023-07-22T05:55:57;99427.91;;;38.18;38.83
11343;BME280;5726;42.160;24.746;2023-07-22T05:58:22;99417.22;;;37.57;39.63
11343;BME280;5726;42.160;24.746;2023-07-22T06:00:48;99419.63;;;37.32;40.74
11343;BME280;5726;42.160;24.746;2023-07-22T06:03:14;99423.19;;;37.06;40.91
11343;BME280;5726;42.160;24.746;2023-07-22T06:05:39;99433.44;;;36.82;41.90
11343;BME280;5726;42.160;24.746;2023-07-22T06:08:05;99427.19;;;36.60;41.76
11343;BME280;5726;42.160;24.746;2023-07-22T06:10:31;99419.47;;;36.82;41.48
11343;BME280;5726;42.160;24.746;2023-07-22T06:12:56;99421.00;;;36.56;41.83
11343;BME280;5726;42.160;24.746;2023-07-22T06:15:22;99416.66;;;36.07;43.50
11343;BME280;5726;42.160;24.746;2023-07-22T06:17:48;99417.38;;;35.90;43.87
11343;BME280;5726;42.160;24.746;2023-07-22T06:20:13;99406.06;;;36.02;44.55
11343;BME280;5726;42.160;24.746;2023-07-22T06:22:39;99410.69;;;36.27;43.88
11343;BME280;5726;42.160;24.746;2023-07-22T06:25:05;99410.63;;;36.09;43.75
11343;BME280;5726;42.160;24.746;2023-07-22T06:27:31;99423.41;;;36.28;43.43
11343;BME280;5726;42.160;24.746;2023-07-22T06:29:57;99416.91;;;36.48;43.07
11343;BME280;5726;42.160;24.746;2023-07-22T06:32:23;99410.75;;;36.62;42.75
11343;BME280;5726;42.160;24.746;2023-07-22T06:34:48;99415.53;;;36.62;41.99
11343;BME280;5726;42.160;24.746;2023-07-22T06:37:14;99418.97;;;36.00;43.60
11343;BME280;5726;42.160;24.746;2023-07-22T06:39:39;99417.44;;;36.17;43.42
11343;BME280;5726;42.160;24.746;2023-07-22T06:42:05;99412.25;;;36.36;42.59
11343;BME280;5726;42.160;24.746;2023-07-22T06:44:30;99414.16;;;36.66;42.42
11343;BME280;5726;42.160;24.746;2023-07-22T06:46:56;99417.41;;;35.99;42.77
11343;BME280;5726;42.160;24.746;2023-07-22T06:49:22;99420.00;;;35.63;43.65
11343;BME280;5726;42.160;24.746;2023-07-22T06:51:47;99420.66;;;35.67;44.45
11343;BME280;5726;42.160;24.746;2023-07-22T06:54:12;99421.09;;;35.96;43.35
11343;BME280;5726;42.160;24.746;2023-07-22T06:56:38;99420.53;;;36.10;42.98
11343;BME280;5726;42.160;24.746;2023-07-22T06:59:03;99437.56;;;35.42;44.22
11343;BME280;5726;42.160;24.746;2023-07-22T07:01:29;99433.28;;;35.81;44.15
11343;BME280;5726;42.160;24.746;2023-07-22T07:03:54;99425.19;;;36.13;43.37
11343;BME280;5726;42.160;24.746;2023-07-22T07:06:20;99424.91;;;36.20;43.32
11343;BME280;5726;42.160;24.746;2023-07-22T07:08:45;99422.50;;;36.39;43.10
11343;BME280;5726;42.160;24.746;2023-07-22T07:11:10;99417.84;;;36.45;42.93
11343;BME280;5726;42.160;24.746;2023-07-22T07:13:36;99422.84;;;36.50;43.09
11343;BME280;5726;42.160;24.746;2023-07-22T07:18:47;99409.75;;;35.60;43.99
11343;BME280;5726;42.160;24.746;2023-07-22T07:21:12;99404.00;;;35.85;44.17
11343;BME280;5726;42.160;24.746;2023-07-22T07:23:37;99393.84;;;36.00;44.19
11343;BME280;5726;42.160;24.746;2023-07-22T07:26:03;99401.59;;;36.05;43.77
11343;BME280;5726;42.160;24.746;2023-07-22T07:28:29;99409.44;;;36.36;44.13
11343;BME280;5726;42.160;24.746;2023-07-22T07:30:54;99411.56;;;36.72;42.41
11343;BME280;5726;42.160;24.746;2023-07-22T07:33:20;99409.19;;;36.70;42.44
11343;BME280;5726;42.160;24.746;2023-07-22T07:35:48;99405.06;;;36.18;43.71
11343;BME280;5726;42.160;24.746;2023-07-22T07:38:13;99404.25;;;36.17;43.66
11343;BME280;5726;42.160;24.746;2023-07-22T07:40:39;99405.22;;;35.54;44.78
11343;BME280;5726;42.160;24.746;2023-07-22T07:43:04;99407.31;;;35.71;44.75
11343;BME280;5726;42.160;24.746;2023-07-22T07:45:29;99405.03;;;35.79;44.53
11343;BME280;5726;42.160;24.746;2023-07-22T07:47:55;99407.03;;;36.08;44.20
11343;BME280;5726;42.160;24.746;2023-07-22T07:50:20;99415.03;;;36.36;43.32
11343;BME280;5726;42.160;24.746;2023-07-22T07:52:46;99422.72;;;36.15;44.19
11343;BME280;5726;42.160;24.746;2023-07-22T07:55:11;99421.75;;;36.00;44.33
11343;BME280;5726;42.160;24.746;2023-07-22T07:57:37;99417.06;;;35.88;45.03
11343;BME280;5726;42.160;24.746;2023-07-22T08:00:03;99417.63;;;36.22;44.06
11343;BME280;5726;42.160;24.746;2023-07-22T08:02:28;99417.63;;;36.22;43.31
11343;BME280;5726;42.160;24.746;2023-07-22T08:04:54;99419.72;;;36.48;43.19
11343;BME280;5726;42.160;24.746;2023-07-22T08:07:19;99423.44;;;36.54;43.59
11343;BME280;5726;42.160;24.746;2023-07-22T08:09:47;99425.06;;;36.82;42.51
11343;BME280;5726;42.160;24.746;2023-07-22T08:12:14;99418.53;;;37.03;42.55
11343;BME280;5726;42.160;24.746;2023-07-22T08:14:39;99411.84;;;37.00;41.69
11343;BME280;5726;42.160;24.746;2023-07-22T08:17:05;99406.66;;;37.52;41.06
11343;BME280;5726;42.160;24.746;2023-07-22T08:19:31;99408.06;;;38.07;39.96
11343;BME280;5726;42.160;24.746;2023-07-22T08:21:56;99407.81;;;37.87;39.45
11343;BME280;5726;42.160;24.746;2023-07-22T08:24:21;99404.44;;;37.74;39.58
11343;BME280;5726;42.160;24.746;2023-07-22T08:26:47;99397.50;;;37.93;39.27
11343;BME280;5726;42.160;24.746;2023-07-22T08:29:12;99401.66;;;37.65;40.14
11343;BME280;5726;42.160;24.746;2023-07-22T08:31:38;99397.63;;;37.57;40.35
11343;BME280;5726;42.160;24.746;2023-07-22T08:34:04;99391.25;;;37.98;39.53
11343;BME280;5726;42.160;24.746;2023-07-22T08:36:29;99400.31;;;37.93;39.40
11343;BME280;5726;42.160;24.746;2023-07-22T08:38:55;99387.59;;;38.38;39.05
11343;BME280;5726;42.160;24.746;2023-07-22T08:41:20;99390.38;;;38.47;38.13
11343;BME280;5726;42.160;24.746;2023-07-22T08:43:48;99377.69;;;38.75;37.61
11343;BME280;5726;42.160;24.746;2023-07-22T08:46:19;99382.94;;;38.82;37.76
11343;BME280;5726;42.160;24.746;2023-07-22T08:48:46;99381.84;;;39.03;36.35
11343;BME280;5726;42.160;24.746;2023-07-22T08:51:16;99381.66;;;39.06;36.87
11343;BME280;5726;42.160;24.746;2023-07-22T08:53:43;99381.19;;;39.36;36.46
11343;BME280;5726;42.160;24.746;2023-07-22T08:56:09;99370.84;;;39.57;35.04
11343;BME280;5726;42.160;24.746;2023-07-22T08:58:35;99379.25;;;39.28;36.34
11343;BME280;5726;42.160;24.746;2023-07-22T09:01:02;99372.78;;;39.22;35.83
11343;BME280;5726;42.160;24.746;2023-07-22T09:03:27;99362.22;;;39.03;37.01
11343;BME280;5726;42.160;24.746;2023-07-22T09:05:54;99357.22;;;39.35;36.20
11343;BME280;5726;42.160;24.746;2023-07-22T09:08:19;99360.84;;;39.13;35.99
11343;BME280;5726;42.160;24.746;2023-07-22T09:10:46;99372.00;;;39.36;36.00
11343;BME280;5726;42.160;24.746;2023-07-22T09:13:13;99361.44;;;39.45;35.49
11343;BME280;5726;42.160;24.746;2023-07-22T09:15:39;99366.19;;;39.39;35.77
11343;BME280;5726;42.160;24.746;2023-07-22T09:18:05;99370.34;;;39.29;35.38
11343;BME280;5726;42.160;24.746;2023-07-22T09:20:32;99358.84;;;39.56;35.48
11343;BME280;5726;42.160;24.746;2023-07-22T09:22:59;99359.91;;;39.44;35.09
11343;BME280;5726;42.160;24.746;2023-07-22T09:25:26;99352.59;;;39.81;34.54
11343;BME280;5726;42.160;24.746;2023-07-22T09:27:53;99345.44;;;39.80;34.89
11343;BME280;5726;42.160;24.746;2023-07-22T09:30:33;99352.94;;;40.03;34.42
11343;BME280;5726;42.160;24.746;2023-07-22T09:33:01;99342.66;;;39.80;34.15
11343;BME280;5726;42.160;24.746;2023-07-22T09:35:47;99341.31;;;39.95;34.60
11343;BME280;5726;42.160;24.746;2023-07-22T09:38:13;99338.09;;;39.68;34.42
11343;BME280;5726;42.160;24.746;2023-07-22T09:40:42;99343.31;;;38.89;35.31
11343;BME280;5726;42.160;24.746;2023-07-22T09:43:10;99333.03;;;38.86;35.27
11343;BME280;5726;42.160;24.746;2023-07-22T09:45:36;99321.19;;;38.91;35.76
11343;BME280;5726;42.160;24.746;2023-07-22T09:48:03;99332.50;;;39.54;34.98
11343;BME280;5726;42.160;24.746;2023-07-22T09:50:29;99319.06;;;39.92;34.25
11343;BME280;5726;42.160;24.746;2023-07-22T09:52:56;99307.75;;;39.86;33.62
11343;BME280;5726;42.160;24.746;2023-07-22T09:55:28;99302.78;;;39.47;34.87
11343;BME280;5726;42.160;24.746;2023-07-22T09:58:01;99303.84;;;39.07;35.03
11343;BME280;5726;42.160;24.746;2023-07-22T10:00:32;99301.34;;;39.37;33.95
11343;BME280;5726;42.160;24.746;2023-07-22T10:02:59;99296.59;;;39.43;34.50
11343;BME280;5726;42.160;24.746;2023-07-22T10:05:27;99289.16;;;39.40;34.73
11343;BME280;5726;42.160;24.746;2023-07-22T10:07:58;99297.00;;;39.36;34.18
11343;BME280;5726;42.160;24.746;2023-07-22T10:10:26;99284.19;;;38.78;35.88
11343;BME280;5726;42.160;24.746;2023-07-22T10:12:53;99284.91;;;39.02;35.07
11343;BME280;5726;42.160;24.746;2023-07-22T10:15:19;99281.41;;;39.21;34.81
11343;BME280;5726;42.160;24.746;2023-07-22T10:17:45;99283.03;;;39.28;33.39
11343;BME280;5726;42.160;24.746;2023-07-22T10:20:12;99285.75;;;39.36;34.47
11343;BME280;5726;42.160;24.746;2023-07-22T10:22:45;99283.16;;;39.19;34.90
11343;BME280;5726;42.160;24.746;2023-07-22T10:25:18;99296.31;;;39.41;34.71
11343;BME280;5726;42.160;24.746;2023-07-22T10:27:47;99275.91;;;39.27;35.02
11343;BME280;5726;42.160;24.746;2023-07-22T10:30:14;99275.03;;;39.21;34.89
11343;BME280;5726;42.160;24.746;2023-07-22T10:32:46;99275.38;;;39.42;35.14
11343;BME280;5726;42.160;24.746;2023-07-22T10:35:22;99282.47;;;39.09;35.31
11343;BME280;5726;42.160;24.746;2023-07-22T10:37:52;99265.75;;;39.00;35.44
11343;BME280;5726;42.160;24.746;2023-07-22T10:40:22;99245.47;;;38.91;35.32
11343;BME280;5726;42.160;24.746;2023-07-22T10:43:03;99270.38;;;39.18;36.06
11343;BME280;5726;42.160;24.746;2023-07-22T10:45:53;99254.69;;;39.26;36.23
11343;BME280;5726;42.160;24.746;2023-07-22T10:48:19;99239.91;;;38.82;37.16
11343;BME280;5726;42.160;24.746;2023-07-22T10:50:47;99256.84;;;38.73;36.96
11343;BME280;5726;42.160;24.746;2023-07-22T11:06:51;99218.22;;;39.74;34.89
11343;BME280;5726;42.160;24.746;2023-07-22T11:11:58;99237.00;;;39.34;34.42
11343;BME280;5726;42.160;24.746;2023-07-22T11:14:26;99224.59;;;39.60;34.79
11343;BME280;5726;42.160;24.746;2023-07-22T11:16:52;99215.63;;;39.56;34.44
11343;BME280;5726;42.160;24.746;2023-07-22T11:19:21;99215.72;;;39.13;35.15
11343;BME280;5726;42.160;24.746;2023-07-22T11:21:48;99218.91;;;39.21;35.98
11343;BME280;5726;42.160;24.746;2023-07-22T11:24:15;99216.09;;;39.21;35.34
11343;BME280;5726;42.160;24.746;2023-07-22T11:26:40;99215.97;;;38.29;36.24
11343;BME280;5726;42.160;24.746;2023-07-22T11:29:07;99213.16;;;37.91;38.60
11343;BME280;5726;42.160;24.746;2023-07-22T11:31:35;99203.94;;;37.77;39.07
11343;BME280;5726;42.160;24.746;2023-07-22T11:34:04;99206.59;;;37.71;38.49
11343;BME280;5726;42.160;24.746;2023-07-22T11:36:30;99194.97;;;37.87;43.32
11343;BME280;5726;42.160;24.746;2023-07-22T11:39:07;99186.25;;;37.85;38.54
11343;BME280;5726;42.160;24.746;2023-07-22T11:41:33;99189.31;;;37.96;39.24
11343;BME280;5726;42.160;24.746;2023-07-22T11:44:00;99191.22;;;38.28;38.37
11343;BME280;5726;42.160;24.746;2023-07-22T11:46:26;99189.47;;;38.16;37.67
11343;BME280;5726;42.160;24.746;2023-07-22T11:48:53;99184.72;;;37.84;36.86
11343;BME280;5726;42.160;24.746;2023-07-22T11:51:24;99179.50;;;37.77;38.35
11343;BME280;5726;42.160;24.746;2023-07-22T11:53:51;99193.38;;;37.72;39.34
11343;BME280;5726;42.160;24.746;2023-07-22T11:56:27;99183.31;;;37.88;39.58
11343;BME280;5726;42.160;24.746;2023-07-22T11:58:54;99174.31;;;38.36;37.10
11343;BME280;5726;42.160;24.746;2023-07-22T12:01:21;99171.72;;;38.33;37.13
11343;BME280;5726;42.160;24.746;2023-07-22T12:03:47;99180.41;;;38.35;37.36
11343;BME280;5726;42.160;24.746;2023-07-22T12:06:13;99179.66;;;38.49;37.71
11343;BME280;5726;42.160;24.746;2023-07-22T12:08:48;99170.19;;;38.75;36.30
11343;BME280;5726;42.160;24.746;2023-07-22T12:13:43;99170.47;;;38.77;33.98
11343;BME280;5726;42.160;24.746;2023-07-22T12:16:12;99174.94;;;38.69;34.05
11343;BME280;5726;42.160;24.746;2023-07-22T12:18:41;99175.03;;;38.89;33.62
11343;BME280;5726;42.160;24.746;2023-07-22T12:21:07;99164.25;;;38.87;33.53
11343;BME280;5726;42.160;24.746;2023-07-22T12:23:35;99159.91;;;39.01;33.42
11343;BME280;5726;42.160;24.746;2023-07-22T12:26:01;99154.97;;;39.10;32.68
11343;BME280;5726;42.160;24.746;2023-07-22T12:28:26;99145.69;;;39.04;32.13
11343;BME280;5726;42.160;24.746;2023-07-22T12:30:51;99151.81;;;39.23;30.83
11343;BME280;5726;42.160;24.746;2023-07-22T12:33:17;99146.13;;;39.17;31.26
11343;BME280;5726;42.160;24.746;2023-07-22T12:35:42;99143.88;;;39.01;30.91
11343;BME280;5726;42.160;24.746;2023-07-22T12:38:08;99141.34;;;39.03;30.49
11343;BME280;5726;42.160;24.746;2023-07-22T12:40:33;99136.38;;;39.13;31.17
11343;BME280;5726;42.160;24.746;2023-07-22T12:42:59;99130.75;;;39.13;31.97
11343;BME280;5726;42.160;24.746;2023-07-22T12:45:24;99135.19;;;39.53;31.02
11343;BME280;5726;42.160;24.746;2023-07-22T12:47:49;99133.56;;;39.47;31.70
11343;BME280;5726;42.160;24.746;2023-07-22T12:50:15;99127.16;;;39.66;31.33
11343;BME280;5726;42.160;24.746;2023-07-22T12:52:40;99125.69;;;39.71;30.26
11343;BME280;5726;42.160;24.746;2023-07-22T12:55:06;99119.47;;;39.61;30.30
11343;BME280;5726;42.160;24.746;2023-07-22T12:57:31;99108.28;;;39.47;30.78
11343;BME280;5726;42.160;24.746;2023-07-22T12:59:57;99104.31;;;39.53;30.41
11343;BME280;5726;42.160;24.746;2023-07-22T13:02:22;99103.59;;;39.58;30.63
11343;BME280;5726;42.160;24.746;2023-07-22T13:04:48;99097.84;;;39.47;31.08
11343;BME280;5726;42.160;24.746;2023-07-22T13:07:13;99088.44;;;39.50;30.15
11343;BME280;5726;42.160;24.746;2023-07-22T13:09:39;99097.63;;;39.51;30.96
11343;BME280;5726;42.160;24.746;2023-07-22T13:12:05;99102.84;;;39.58;30.41
11343;BME280;5726;42.160;24.746;2023-07-22T13:14:31;99086.47;;;39.36;29.80
11343;BME280;5726;42.160;24.746;2023-07-22T13:16:56;99091.97;;;39.11;30.36
11343;BME280;5726;42.160;24.746;2023-07-22T13:19:22;99076.88;;;39.43;29.20